Time;durP1;ratioP1;P1;durP2;ratioP2;P2;SDS_P1;SDS_P2;PMS_P1;PMS_P2;Temp;Humidity;BMP_temperature;BMP_pressure;BME280_temperature;BME280_humidity;BME280_pressure;Samples;Min_cycle;Max_cycle;Signal;HPM_P1;HPM_P2
2022/07/28 00:00:36;;;;;;;4.82;1.55;;;9.60;87.90;;;;;;5024163;28;20497;-71
2022/07/28 00:03:02;;;;;;;6.43;1.90;;;9.60;88.40;;;;;;5026970;28;20469;-71
2022/07/28 00:05:28;;;;;;;3.38;1.60;;;9.50;88.40;;;;;;5030229;28;20040;-71
2022/07/28 00:07:53;;;;;;;2.47;1.48;;;9.50;88.80;;;;;;5030784;28;20044;-71
2022/07/28 00:10:19;;;;;;;4.50;1.60;;;9.40;89.10;;;;;;5029116;28;20033;-71
2022/07/28 00:12:44;;;;;;;3.35;1.50;;;9.40;89.20;;;;;;5030611;28;20417;-71
2022/07/28 00:15:11;;;;;;;4.45;1.60;;;9.40;88.80;;;;;;5031474;28;20029;-71
2022/07/28 00:17:37;;;;;;;5.85;1.83;;;9.30;89.00;;;;;;5026712;28;20029;-71
2022/07/28 00:20:03;;;;;;;6.20;1.67;;;9.30;89.30;;;;;;5030096;28;20091;-71
2022/07/28 00:22:29;;;;;;;4.53;1.90;;;9.30;89.10;;;;;;5029886;28;20057;-71
2022/07/28 00:24:55;;;;;;;4.88;1.60;;;9.30;89.30;;;;;;5028873;28;20493;-71
2022/07/28 00:27:20;;;;;;;3.70;1.90;;;9.20;89.30;;;;;;5026094;28;20041;-71
2022/07/28 00:29:46;;;;;;;5.07;1.90;;;9.20;89.20;;;;;;5026173;28;20469;-71
2022/07/28 00:32:11;;;;;;;3.13;1.83;;;9.20;89.30;;;;;;5021341;28;20101;-71
2022/07/28 00:34:37;;;;;;;4.57;1.60;;;9.20;89.90;;;;;;5029176;28;20033;-71
2022/07/28 00:37:03;;;;;;;7.53;2.00;;;9.20;90.00;;;;;;5019247;28;20042;-71
2022/07/28 00:39:28;;;;;;;6.55;2.08;;;9.10;89.80;;;;;;5029279;28;20025;-71
2022/07/28 00:41:54;;;;;;;2.90;1.60;;;9.10;89.80;;;;;;5027386;28;20547;-71
2022/07/28 00:44:19;;;;;;;5.13;1.67;;;9.10;89.80;;;;;;5027251;28;20237;-71
2022/07/28 00:46:45;;;;;;;5.40;1.95;;;9.10;90.20;;;;;;5028726;28;20104;-71
2022/07/28 00:49:13;;;;;;;9.13;2.05;;;9.00;90.40;;;;;;5027580;28;20033;-71
2022/07/28 00:51:39;;;;;;;2.72;1.35;;;9.00;90.50;;;;;;5026441;28;20034;-71
2022/07/28 00:54:05;;;;;;;4.45;1.63;;;8.90;90.50;;;;;;5031500;28;20544;-71
2022/07/28 00:56:32;;;;;;;8.00;2.20;;;8.90;90.70;;;;;;5028630;28;20029;-72
2022/07/28 00:58:58;;;;;;;7.88;2.03;;;8.90;91.20;;;;;;5025835;28;20353;-71
2022/07/28 01:01:23;;;;;;;5.03;2.30;;;8.80;91.50;;;;;;5025005;28;20079;-72
2022/07/28 01:03:56;;;;;;;3.72;1.88;;;8.90;92.20;;;;;;5023134;28;20446;-72
2022/07/28 01:06:36;;;;;;;6.10;2.00;;;8.90;92.30;;;;;;5022341;28;20108;-72
2022/07/28 01:09:25;;;;;;;5.50;1.98;;;8.80;92.40;;;;;;5030108;28;20028;-72
2022/07/28 01:12:02;;;;;;;5.00;1.73;;;8.70;92.60;;;;;;5029405;28;20043;-72
2022/07/28 01:14:39;;;;;;;6.25;2.08;;;8.70;92.30;;;;;;5027746;28;20048;-72
2022/07/28 01:17:16;;;;;;;5.38;2.13;;;8.70;92.10;;;;;;5019198;28;20022;-72
2022/07/28 01:20:08;;;;;;;8.23;2.20;;;8.60;92.00;;;;;;5029013;28;20025;-72
2022/07/28 01:22:40;;;;;;;5.78;2.65;;;8.60;92.50;;;;;;5025550;28;20063;-72
2022/07/28 01:25:18;;;;;;;6.18;2.22;;;8.60;92.20;;;;;;5028845;28;20033;-72
2022/07/28 01:28:19;;;;;;;10.25;2.65;;;8.60;92.30;;;;;;5029918;28;20029;-72
2022/07/28 01:30:52;;;;;;;6.38;2.45;;;8.50;92.40;;;;;;5023524;28;20032;-72
2022/07/28 01:33:25;;;;;;;6.70;2.45;;;8.50;92.50;;;;;;5024637;28;20532;-72
2022/07/28 01:35:55;;;;;;;8.75;3.22;;;8.40;92.20;;;;;;5014554;28;20080;-72
2022/07/28 01:38:23;;;;;;;5.80;2.85;;;8.40;92.20;;;;;;5025376;28;20095;-72
2022/07/28 01:40:51;;;;;;;5.88;2.83;;;8.40;92.20;;;;;;5028196;28;20021;-72
2022/07/28 01:43:20;;;;;;;8.45;3.08;;;8.40;92.20;;;;;;5027229;28;20020;-72
2022/07/28 01:45:46;;;;;;;5.43;3.13;;;8.40;92.10;;;;;;5027956;28;20480;-72
2022/07/28 01:48:14;;;;;;;7.47;3.33;;;8.40;92.20;;;;;;5027925;28;20026;-72
2022/07/28 01:50:41;;;;;;;7.10;3.45;;;8.40;92.40;;;;;;5027143;28;20428;-72
2022/07/28 01:53:11;;;;;;;6.05;2.65;;;8.50;92.70;;;;;;5024984;28;20029;-72
2022/07/28 01:55:37;;;;;;;5.80;3.03;;;8.40;92.60;;;;;;5027753;28;20095;-72
2022/07/28 01:58:05;;;;;;;8.20;2.92;;;8.30;92.50;;;;;;5025599;28;20017;-72
2022/07/28 02:00:32;;;;;;;8.68;2.78;;;8.30;92.30;;;;;;5025614;28;20030;-72
2022/07/28 02:03:02;;;;;;;5.78;2.78;;;8.20;92.20;;;;;;5020543;28;20065;-72
2022/07/28 02:05:29;;;;;;;8.13;3.45;;;8.20;92.10;;;;;;5029235;28;20091;-72
2022/07/28 02:07:57;;;;;;;6.60;3.05;;;8.20;92.30;;;;;;5027378;28;20025;-72
2022/07/28 02:10:24;;;;;;;4.68;2.88;;;8.20;92.30;;;;;;5028591;28;20464;-72
2022/07/28 02:12:53;;;;;;;9.23;3.15;;;8.20;92.30;;;;;;5026569;28;20554;-72
2022/07/28 02:15:20;;;;;;;8.23;3.50;;;8.30;92.70;;;;;;5023253;28;20154;-72
2022/07/28 02:17:47;;;;;;;6.93;2.78;;;8.30;93.10;;;;;;5024950;28;20092;-72
2022/07/28 02:20:13;;;;;;;7.85;3.10;;;8.30;93.30;;;;;;5028011;28;20052;-72
2022/07/28 02:22:40;;;;;;;11.15;3.28;;;8.30;93.30;;;;;;5024630;28;20430;-72
2022/07/28 02:25:06;;;;;;;6.43;3.28;;;8.30;93.30;;;;;;5025038;28;20377;-72
2022/07/28 02:27:37;;;;;;;9.27;3.15;;;8.30;93.10;;;;;;5025773;28;20025;-72
2022/07/28 02:30:13;;;;;;;7.68;2.90;;;8.20;92.70;;;;;;5028225;28;20026;-72
2022/07/28 02:32:41;;;;;;;8.50;2.97;;;8.30;93.30;;;;;;5021181;28;20025;-72
2022/07/28 02:35:43;;;;;;;8.43;2.80;;;8.30;93.30;;;;;;5027290;28;20334;-72
2022/07/28 02:38:13;;;;;;;6.00;3.25;;;8.30;93.60;;;;;;5024511;28;20123;-72
2022/07/28 02:40:41;;;;;;;9.38;3.33;;;8.30;93.80;;;;;;5019351;28;20030;-72
2022/07/28 02:43:11;;;;;;;6.18;3.03;;;8.20;93.70;;;;;;5026520;28;20079;-72
2022/07/28 02:45:40;;;;;;;7.13;3.10;;;8.20;93.30;;;;;;5027642;28;20026;-72
2022/07/28 02:48:10;;;;;;;4.25;2.55;;;8.30;93.20;;;;;;5023574;28;20036;-72
2022/07/28 02:50:39;;;;;;;6.72;2.88;;;8.30;93.00;;;;;;5027383;28;20103;-72
2022/07/28 02:53:06;;;;;;;9.95;2.90;;;8.40;93.00;;;;;;5027145;28;20380;-72
2022/07/28 02:55:33;;;;;;;6.18;3.05;;;8.40;92.90;;;;;;5027320;28;20038;-72
2022/07/28 02:58:00;;;;;;;5.38;2.92;;;8.40;93.00;;;;;;5022989;28;20032;-72
2022/07/28 03:00:27;;;;;;;9.43;2.85;;;8.40;93.30;;;;;;5027005;28;20139;-72
2022/07/28 03:02:54;;;;;;;5.75;3.00;;;8.40;93.30;;;;;;5021888;28;20033;-72
2022/07/28 03:05:20;;;;;;;10.57;3.30;;;8.50;93.30;;;;;;5027922;28;20104;-72
2022/07/28 03:07:51;;;;;;;7.18;2.78;;;8.50;93.20;;;;;;5026765;28;20148;-72
2022/07/28 03:10:19;;;;;;;6.03;3.10;;;8.60;93.00;;;;;;5016862;28;20076;-72
2022/07/28 03:12:45;;;;;;;8.68;2.90;;;8.70;92.80;;;;;;5027547;28;20038;-72
2022/07/28 03:15:10;;;;;;;5.97;3.22;;;8.80;93.10;;;;;;5028394;28;20099;-72
2022/07/28 03:17:36;;;;;;;7.82;3.05;;;8.90;93.20;;;;;;5023417;28;20025;-72
2022/07/28 03:20:01;;;;;;;7.80;3.17;;;9.00;93.10;;;;;;5026446;28;20040;-72
2022/07/28 03:22:27;;;;;;;5.78;2.70;;;9.00;92.90;;;;;;5027773;28;20064;-72
2022/07/28 03:24:54;;;;;;;9.70;3.22;;;9.10;92.70;;;;;;5027702;28;20477;-72
2022/07/28 03:27:26;;;;;;;5.90;2.70;;;9.20;92.80;;;;;;5020970;28;20032;-72
2022/07/28 03:29:57;;;;;;;10.88;3.13;;;9.30;93.00;;;;;;5024841;28;20102;-72
2022/07/28 03:32:26;;;;;;;6.05;3.13;;;9.20;93.00;;;;;;5022726;28;20120;-72
2022/07/28 03:34:51;;;;;;;7.65;2.50;;;9.30;93.10;;;;;;5026953;28;20045;-72
2022/07/28 03:37:24;;;;;;;7.90;2.50;;;9.30;93.10;;;;;;5024453;28;20565;-72
2022/07/28 03:39:51;;;;;;;7.75;2.78;;;9.40;92.80;;;;;;5026688;28;20028;-72
2022/07/28 03:42:18;;;;;;;6.35;2.47;;;9.30;92.60;;;;;;5025400;28;20079;-72
2022/07/28 03:44:47;;;;;;;4.85;2.40;;;9.40;92.80;;;;;;5025747;28;20559;-72
2022/07/28 03:47:14;;;;;;;6.13;2.92;;;9.50;92.70;;;;;;5023427;28;20033;-72
2022/07/28 03:49:40;;;;;;;4.82;2.63;;;9.60;92.70;;;;;;5023539;28;20044;-72
2022/07/28 03:52:05;;;;;;;7.10;2.65;;;9.60;92.50;;;;;;5027358;28;20029;-72
2022/07/28 03:54:31;;;;;;;4.35;2.35;;;9.70;92.20;;;;;;5026506;28;20382;-72
2022/07/28 03:56:56;;;;;;;6.20;2.42;;;9.80;92.30;;;;;;5024210;28;20483;-72
2022/07/28 03:59:22;;;;;;;6.38;2.08;;;9.90;92.00;;;;;;5025454;28;20420;-72
2022/07/28 04:01:48;;;;;;;7.60;2.63;;;10.00;91.80;;;;;;5022707;28;20033;-72
2022/07/28 04:04:13;;;;;;;4.78;2.47;;;9.90;91.80;;;;;;5025464;28;20029;-72
2022/07/28 04:06:39;;;;;;;11.48;3.15;;;10.10;91.90;;;;;;5026349;28;20038;-72
2022/07/28 04:09:05;;;;;;;6.53;3.08;;;10.10;91.80;;;;;;5028001;28;20132;-72
2022/07/28 04:11:30;;;;;;;8.32;3.03;;;10.20;91.30;;;;;;5029705;28;20106;-72
2022/07/28 04:13:56;;;;;;;6.72;2.78;;;10.30;91.50;;;;;;5031863;28;20033;-72
2022/07/28 04:16:22;;;;;;;5.28;2.72;;;10.40;91.40;;;;;;5023702;28;20061;-72
2022/07/28 04:18:47;;;;;;;7.22;2.50;;;10.50;91.10;;;;;;5030113;28;20029;-72
2022/07/28 04:21:13;;;;;;;4.60;2.22;;;10.50;91.10;;;;;;5029229;28;20101;-72
2022/07/28 04:23:39;;;;;;;5.60;2.40;;;10.50;91.30;;;;;;5030948;28;20045;-72
2022/07/28 04:26:04;;;;;;;7.18;2.80;;;10.50;90.90;;;;;;5031999;28;20069;-70
2022/07/28 04:28:30;;;;;;;4.80;2.50;;;10.60;91.00;;;;;;5030099;28;20078;-69
2022/07/28 04:30:55;;;;;;;5.10;2.38;;;10.70;90.80;;;;;;5021967;28;20112;-69
2022/07/28 04:33:21;;;;;;;4.22;2.70;;;10.70;90.60;;;;;;5025362;28;20372;-69
2022/07/28 04:35:46;;;;;;;8.15;3.05;;;10.80;90.60;;;;;;5029850;28;20025;-69
2022/07/28 04:38:16;;;;;;;6.07;2.47;;;10.90;90.60;;;;;;5030007;28;20041;-69
2022/07/28 04:40:42;;;;;;;9.20;2.80;;;10.90;90.80;;;;;;5029571;28;20029;-69
2022/07/28 04:43:09;;;;;;;6.63;2.53;;;11.00;90.80;;;;;;5029803;28;20440;-69
2022/07/28 04:45:35;;;;;;;5.05;2.33;;;11.10;90.60;;;;;;5028898;28;20029;-68
2022/07/28 04:48:00;;;;;;;7.07;2.60;;;11.20;90.10;;;;;;5028392;28;20469;-69
2022/07/28 04:50:26;;;;;;;6.15;2.65;;;11.10;90.10;;;;;;5028289;28;20044;-69
2022/07/28 04:52:51;;;;;;;4.97;2.40;;;11.20;89.70;;;;;;5027825;28;20021;-69
2022/07/28 04:55:17;;;;;;;8.98;2.72;;;11.30;89.80;;;;;;5028668;28;20364;-69
2022/07/28 04:57:43;;;;;;;8.48;3.15;;;11.30;89.80;;;;;;5029428;28;20033;-69
2022/07/28 05:00:12;;;;;;;5.47;2.08;;;11.50;89.60;;;;;;5019677;28;20089;-69
2022/07/28 05:02:42;;;;;;;6.50;2.20;;;11.50;89.30;;;;;;5019212;28;20052;-69
2022/07/28 05:05:08;;;;;;;5.05;2.28;;;11.60;88.80;;;;;;5022039;28;20114;-69
2022/07/28 05:07:34;;;;;;;4.05;2.22;;;11.60;88.50;;;;;;5022340;28;20057;-69
2022/07/28 05:10:00;;;;;;;4.60;2.35;;;11.80;88.80;;;;;;5028314;28;20107;-68
2022/07/28 05:12:26;;;;;;;4.22;2.28;;;11.80;88.60;;;;;;5017383;28;20133;-68
2022/07/28 05:14:51;;;;;;;3.92;2.20;;;11.80;88.60;;;;;;5028073;28;20128;-69
2022/07/28 05:17:17;;;;;;;4.20;2.03;;;12.00;88.90;;;;;;5021073;28;20033;-69
2022/07/28 05:19:42;;;;;;;5.25;1.75;;;12.00;88.00;;;;;;5024654;28;20445;-69
2022/07/28 05:22:07;;;;;;;6.50;1.80;;;12.00;88.40;;;;;;5012733;28;20037;-68
2022/07/28 05:24:33;;;;;;;9.15;2.05;;;11.90;88.60;;;;;;5026299;28;20421;-69
2022/07/28 05:26:58;;;;;;;4.70;1.77;;;11.90;89.00;;;;;;5025100;28;20068;-69
2022/07/28 05:29:24;;;;;;;5.03;2.10;;;11.90;89.10;;;;;;5025738;28;20489;-69
2022/07/28 05:31:49;;;;;;;5.00;1.50;;;12.00;88.90;;;;;;5024513;28;20116;-69
2022/07/28 05:34:15;;;;;;;5.47;1.60;;;12.20;88.60;;;;;;5027754;28;20025;-69
2022/07/28 05:36:41;;;;;;;3.00;1.67;;;12.30;87.90;;;;;;5018460;28;20053;-70
2022/07/28 05:39:06;;;;;;;4.93;1.90;;;12.50;87.10;;;;;;5026652;28;20039;-69
2022/07/28 05:41:32;;;;;;;3.83;1.85;;;12.60;86.80;;;;;;5026936;28;20393;-69
2022/07/28 05:43:59;;;;;;;6.13;1.85;;;12.60;86.50;;;;;;5027154;28;20039;-69
2022/07/28 05:46:25;;;;;;;7.97;2.20;;;12.70;86.90;;;;;;5017458;28;20014;-70
2022/07/28 05:48:51;;;;;;;12.07;2.63;;;12.80;86.70;;;;;;5025313;28;20026;-69
2022/07/28 05:51:17;;;;;;;7.50;1.83;;;12.70;86.30;;;;;;5023381;28;20061;-69
2022/07/28 05:53:43;;;;;;;4.93;2.17;;;12.80;86.50;;;;;;5020700;28;20029;-69
2022/07/28 05:56:08;;;;;;;3.97;1.88;;;13.10;86.70;;;;;;5022315;28;20060;-69
2022/07/28 05:58:34;;;;;;;4.35;1.83;;;13.30;86.30;;;;;;5024198;28;20412;-69
2022/07/28 06:01:01;;;;;;;3.42;1.35;;;13.60;85.70;;;;;;5028522;28;20087;-69
2022/07/28 06:03:31;;;;;;;6.10;2.00;;;13.50;84.10;;;;;;5019969;28;20067;-69
2022/07/28 06:05:56;;;;;;;4.47;1.63;;;13.70;84.50;;;;;;5026843;28;20029;-69
2022/07/28 06:08:25;;;;;;;5.18;1.77;;;14.00;84.50;;;;;;5024682;28;20029;-69
2022/07/28 06:10:57;;;;;;;6.80;1.50;;;14.10;83.40;;;;;;5027645;28;20036;-69
2022/07/28 06:13:23;;;;;;;4.80;1.77;;;14.20;81.40;;;;;;5024042;28;20132;-69
2022/07/28 06:15:51;;;;;;;4.50;1.50;;;14.40;81.90;;;;;;5020676;28;20124;-69
2022/07/28 06:18:21;;;;;;;9.40;1.42;;;14.50;81.60;;;;;;5014984;28;20037;-70
2022/07/28 06:20:47;;;;;;;3.00;1.63;;;14.60;82.20;;;;;;5019156;28;20025;-69
2022/07/28 06:23:17;;;;;;;4.13;1.52;;;14.60;81.60;;;;;;5026506;28;20108;-69
2022/07/28 06:25:43;;;;;;;3.92;1.33;;;14.70;81.50;;;;;;5027223;28;20112;-69
2022/07/28 06:28:09;;;;;;;6.65;1.48;;;14.70;80.90;;;;;;5024641;28;20120;-69
2022/07/28 06:30:34;;;;;;;5.45;1.10;;;14.70;81.40;;;;;;5024873;28;20030;-70
2022/07/28 06:33:00;;;;;;;3.38;1.13;;;14.60;79.10;;;;;;5019238;28;20041;-70
2022/07/28 06:35:26;;;;;;;2.30;0.98;;;14.70;80.60;;;;;;5027088;28;20040;-70
2022/07/28 06:37:52;;;;;;;2.72;1.20;;;14.80;80.20;;;;;;5028820;28;20045;-70
2022/07/28 06:40:19;;;;;;;2.25;0.65;;;14.80;79.10;;;;;;5030088;28;20033;-69
2022/07/28 06:42:45;;;;;;;7.00;1.13;;;14.70;78.50;;;;;;5027806;28;20069;-69
2022/07/28 06:45:12;;;;;;;4.55;1.20;;;14.80;78.30;;;;;;5029869;28;20076;-69
2022/07/28 06:47:38;;;;;;;3.28;0.75;;;14.80;78.80;;;;;;5027702;28;20388;-70
2022/07/28 06:50:04;;;;;;;4.28;1.17;;;14.90;79.00;;;;;;5029625;28;20033;-69
2022/07/28 06:52:31;;;;;;;6.13;1.40;;;14.90;78.40;;;;;;5026164;28;20496;-69
2022/07/28 06:54:56;;;;;;;6.68;1.30;;;15.10;79.00;;;;;;5029223;28;20041;-70
2022/07/28 06:57:22;;;;;;;4.90;1.10;;;15.00;78.00;;;;;;5029309;28;20044;-70
2022/07/28 06:59:48;;;;;;;8.50;1.13;;;15.00;78.30;;;;;;5026859;28;20029;-70
2022/07/28 07:02:15;;;;;;;3.40;1.08;;;15.10;77.50;;;;;;5020854;28;20441;-70
2022/07/28 07:04:40;;;;;;;5.40;1.52;;;15.20;77.50;;;;;;5027860;28;20037;-70
2022/07/28 07:07:06;;;;;;;6.57;1.33;;;15.30;77.60;;;;;;5025569;28;20037;-70
2022/07/28 07:09:32;;;;;;;7.13;1.35;;;15.20;77.30;;;;;;5029730;28;20448;-69
2022/07/28 07:11:57;;;;;;;7.45;1.58;;;15.30;77.50;;;;;;5027109;28;20451;-70
2022/07/28 07:14:23;;;;;;;7.07;1.30;;;15.40;78.50;;;;;;5024546;28;20177;-70
2022/07/28 07:16:49;;;;;;;5.55;1.65;;;15.30;78.60;;;;;;5028046;28;20064;-69
2022/07/28 07:19:15;;;;;;;8.18;1.08;;;15.40;77.50;;;;;;5028680;28;20358;-70
2022/07/28 07:21:40;;;;;;;3.35;1.30;;;15.50;77.00;;;;;;5026820;28;20068;-70
2022/07/28 07:24:06;;;;;;;3.92;1.05;;;15.50;77.30;;;;;;5028435;28;20033;-70
2022/07/28 07:26:32;;;;;;;5.35;1.15;;;15.50;77.00;;;;;;5028988;28;20087;-70
2022/07/28 07:28:58;;;;;;;5.03;1.00;;;15.80;76.40;;;;;;5028762;28;20025;-70
2022/07/28 07:31:23;;;;;;;2.33;0.98;;;15.60;75.50;;;;;;5027530;28;20369;-70
2022/07/28 07:33:49;;;;;;;3.95;1.25;;;15.50;75.90;;;;;;5027887;28;20037;-70
2022/07/28 07:36:14;;;;;;;4.85;0.82;;;15.80;76.70;;;;;;5029415;28;20025;-70
2022/07/28 07:38:39;;;;;;;6.53;1.40;;;15.90;76.10;;;;;;5029229;28;20045;-70
2022/07/28 07:41:05;;;;;;;3.15;1.05;;;16.10;75.80;;;;;;5026892;28;20048;-70
2022/07/28 07:43:30;;;;;;;5.45;1.20;;;16.00;75.70;;;;;;5028932;28;20028;-70
2022/07/28 07:45:56;;;;;;;5.20;1.05;;;16.00;74.00;;;;;;5029637;28;20488;-70
2022/07/28 07:48:22;;;;;;;3.13;0.90;;;16.30;74.70;;;;;;5030292;28;20025;-70
2022/07/28 07:50:47;;;;;;;5.05;0.88;;;16.40;73.20;;;;;;5030029;28;20032;-70
2022/07/28 07:53:13;;;;;;;4.00;1.27;;;16.30;72.90;;;;;;5030567;28;20448;-70
2022/07/28 07:55:38;;;;;;;3.13;0.77;;;16.50;71.80;;;;;;5031581;28;20454;-70
2022/07/28 07:58:05;;;;;;;3.95;0.88;;;16.50;71.30;;;;;;5031753;28;20026;-70
2022/07/28 08:00:30;;;;;;;4.75;1.20;;;16.50;71.90;;;;;;5032884;28;20116;-70
2022/07/28 08:02:57;;;;;;;4.75;0.80;;;16.60;71.40;;;;;;5031309;28;20177;-70
2022/07/28 08:05:23;;;;;;;4.18;1.17;;;16.60;70.40;;;;;;5031204;28;20029;-70
2022/07/28 08:07:49;;;;;;;3.85;0.80;;;16.80;71.00;;;;;;5031809;28;20036;-70
2022/07/28 08:10:15;;;;;;;4.05;1.13;;;17.00;71.10;;;;;;5031479;28;20495;-70
2022/07/28 08:12:40;;;;;;;3.95;1.10;;;17.00;68.60;;;;;;5016577;28;20025;-70
2022/07/28 08:15:07;;;;;;;3.95;0.90;;;17.20;71.30;;;;;;5030907;28;20079;-70
2022/07/28 08:17:32;;;;;;;4.05;1.10;;;17.50;68.80;;;;;;5022660;28;20029;-70
2022/07/28 08:19:58;;;;;;;5.50;0.95;;;17.20;68.90;;;;;;5028148;28;20515;-70
2022/07/28 08:22:23;;;;;;;6.10;1.23;;;17.50;68.50;;;;;;5029818;28;20117;-70
2022/07/28 08:24:49;;;;;;;1.73;0.50;;;17.80;65.20;;;;;;5029451;28;20057;-70
2022/07/28 08:27:15;;;;;;;3.97;0.75;;;17.70;62.00;;;;;;5031382;28;20499;-70
2022/07/28 08:29:41;;;;;;;2.60;0.90;;;18.10;61.90;;;;;;5030820;28;20096;-70
2022/07/28 08:32:06;;;;;;;3.75;0.95;;;18.40;62.60;;;;;;5024489;28;20064;-70
2022/07/28 08:34:33;;;;;;;7.13;1.00;;;18.50;62.90;;;;;;5030961;28;20038;-70
2022/07/28 08:36:58;;;;;;;3.30;0.80;;;18.80;61.40;;;;;;5032008;28;20045;-70
2022/07/28 08:39:24;;;;;;;5.05;0.95;;;18.70;60.50;;;;;;5032018;28;20034;-70
2022/07/28 08:42:02;;;;;;;1.80;0.73;;;18.30;59.20;;;;;;5030245;28;20084;-70
2022/07/28 08:44:37;;;;;;;4.30;0.80;;;17.80;59.90;;;;;;5030075;28;20417;-70
2022/07/28 08:47:07;;;;;;;4.85;0.98;;;18.20;60.00;;;;;;5030627;28;20044;-70
2022/07/28 08:49:35;;;;;;;4.95;0.93;;;18.50;59.10;;;;;;5028198;28;20021;-70
2022/07/28 08:52:01;;;;;;;2.53;0.60;;;18.40;57.20;;;;;;5028843;28;20032;-70
2022/07/28 08:54:28;;;;;;;2.92;0.82;;;19.00;56.20;;;;;;5031140;28;20060;-70
2022/07/28 08:56:55;;;;;;;3.47;0.70;;;19.20;54.60;;;;;;5030702;28;20045;-70
2022/07/28 08:59:22;;;;;;;2.67;0.82;;;19.20;56.70;;;;;;5029635;28;20022;-70
2022/07/28 09:01:48;;;;;;;2.65;0.77;;;19.70;57.80;;;;;;5025843;28;20033;-73
2022/07/28 09:04:14;;;;;;;3.25;0.75;;;20.10;54.30;;;;;;5024187;28;20477;-70
2022/07/28 09:06:41;;;;;;;1.38;0.52;;;19.80;52.90;;;;;;5030476;28;20108;-70
2022/07/28 09:09:08;;;;;;;3.17;0.70;;;20.00;54.10;;;;;;5027546;28;20036;-70
2022/07/28 09:11:38;;;;;;;2.28;0.60;;;20.10;51.00;;;;;;5029620;28;20025;-70
2022/07/28 09:14:05;;;;;;;2.97;0.80;;;19.60;52.00;;;;;;5021195;28;20026;-70
2022/07/28 09:16:31;;;;;;;2.05;0.60;;;19.50;51.90;;;;;;5023915;28;20299;-70
2022/07/28 09:18:56;;;;;;;2.30;0.65;;;19.00;53.90;;;;;;5025395;28;20180;-70
2022/07/28 09:21:22;;;;;;;3.95;0.95;;;18.50;53.30;;;;;;5029413;28;20112;-70
2022/07/28 09:23:48;;;;;;;1.75;0.80;;;18.50;56.40;;;;;;5031077;28;20017;-70
2022/07/28 09:26:15;;;;;;;3.10;0.52;;;19.00;55.90;;;;;;5031168;28;20390;-70
2022/07/28 09:28:47;;;;;;;4.70;0.77;;;19.20;54.70;;;;;;5028443;28;20469;-70
2022/07/28 09:31:12;;;;;;;3.88;0.70;;;19.60;57.80;;;;;;5028343;28;20021;-70
2022/07/28 09:33:38;;;;;;;3.90;0.60;;;19.60;55.00;;;;;;5027151;28;20086;-70
2022/07/28 09:36:13;;;;;;;3.67;0.70;;;19.70;54.80;;;;;;5030339;28;20443;-70
2022/07/28 09:38:40;;;;;;;6.60;0.85;;;19.80;56.00;;;;;;5028473;28;20045;-70
2022/07/28 09:41:06;;;;;;;4.90;0.80;;;19.60;54.80;;;;;;5028381;28;20030;-70
2022/07/28 09:43:35;;;;;;;4.32;0.70;;;19.80;55.50;;;;;;5028385;28;20497;-70
2022/07/28 09:46:15;;;;;;;1.58;0.70;;;19.80;52.70;;;;;;5024378;28;20025;-70
2022/07/28 09:48:55;;;;;;;1.90;0.50;;;20.20;56.10;;;;;;5022700;28;20116;-70
2022/07/28 09:51:24;;;;;;;1.60;0.80;;;19.90;52.30;;;;;;5025819;28;20030;-70
2022/07/28 09:53:50;;;;;;;3.28;0.80;;;19.80;53.00;;;;;;5028464;28;20485;-70
2022/07/28 09:56:16;;;;;;;5.13;0.70;;;20.10;54.00;;;;;;5021198;28;20025;-70
2022/07/28 09:58:56;;;;;;;2.58;0.80;;;19.80;53.50;;;;;;5028707;28;20021;-70
2022/07/28 10:01:22;;;;;;;2.35;0.73;;;20.30;55.90;;;;;;5018450;28;20025;-70
2022/07/28 10:03:54;;;;;;;2.22;0.70;;;20.40;55.00;;;;;;5029713;28;20037;-70
2022/07/28 10:06:34;;;;;;;5.20;0.80;;;20.20;54.50;;;;;;5026534;28;20108;-70
2022/07/28 10:09:06;;;;;;;2.08;0.80;;;20.40;52.10;;;;;;5030243;28;20017;-70
2022/07/28 10:11:32;;;;;;;4.53;0.85;;;20.60;54.40;;;;;;5028670;28;20064;-70
2022/07/28 10:14:01;;;;;;;3.03;0.70;;;20.90;52.70;;;;;;5029266;28;20452;-70
2022/07/28 10:16:29;;;;;;;5.05;0.63;;;20.30;53.90;;;;;;5027821;28;20037;-70
2022/07/28 10:18:56;;;;;;;3.75;0.50;;;20.90;54.30;;;;;;5026934;28;20033;-70
2022/07/28 10:21:24;;;;;;;2.38;0.70;;;20.80;53.50;;;;;;5025006;28;20065;-70
2022/07/28 10:23:53;;;;;;;2.47;0.60;;;20.90;51.20;;;;;;5025264;28;20030;-70
2022/07/28 10:26:30;;;;;;;3.58;0.60;;;21.20;52.60;;;;;;5020263;28;20026;-70
2022/07/28 10:28:56;;;;;;;1.77;0.50;;;20.80;51.10;;;;;;5029481;28;20477;-70
2022/07/28 10:31:31;;;;;;;2.97;0.77;;;21.20;52.20;;;;;;5028742;28;20033;-70
2022/07/28 10:33:58;;;;;;;20.17;1.10;;;21.40;50.30;;;;;;5027822;28;20076;-70
2022/07/28 10:36:25;;;;;;;3.50;0.70;;;21.50;51.00;;;;;;5027882;28;20371;-70
2022/07/28 10:38:58;;;;;;;1.38;0.43;;;21.50;49.50;;;;;;5029758;28;20038;-70
2022/07/28 10:41:27;;;;;;;2.10;0.60;;;21.70;48.80;;;;;;5024167;28;20030;-70
2022/07/28 10:43:54;;;;;;;0.98;0.50;;;22.90;47.30;;;;;;5025911;28;20053;-70
2022/07/28 10:46:20;;;;;;;1.95;0.60;;;22.90;45.10;;;;;;5028492;28;20026;-71
2022/07/28 10:48:46;;;;;;;10.27;0.75;;;22.60;45.80;;;;;;5027957;28;20078;-70
2022/07/28 10:51:12;;;;;;;2.92;0.60;;;21.90;47.20;;;;;;5026548;28;20029;-70
2022/07/28 10:53:53;;;;;;;2.40;0.50;;;22.30;47.00;;;;;;5029020;28;20022;-70
2022/07/28 10:56:52;;;;;;;0.82;0.50;;;21.60;46.20;;;;;;5029629;28;20389;-70
2022/07/28 10:59:47;;;;;;;1.92;0.60;;;21.50;48.70;;;;;;5020490;28;20072;-70
2022/07/28 11:02:53;;;;;;;0.77;0.40;;;21.50;49.70;;;;;;5025102;28;20414;-70
2022/07/28 11:05:39;;;;;;;0.93;0.40;;;21.40;46.30;;;;;;5026827;28;20022;-70
2022/07/28 11:08:26;;;;;;;2.83;0.38;;;20.70;47.50;;;;;;5026154;28;20037;-70
2022/07/28 11:10:53;;;;;;;2.83;0.70;;;20.80;49.70;;;;;;5028530;28;20017;-70
2022/07/28 11:13:22;;;;;;;2.17;0.40;;;21.00;47.30;;;;;;5025671;28;20033;-70
2022/07/28 11:15:48;;;;;;;1.88;0.50;;;21.00;50.80;;;;;;5025647;28;20434;-70
2022/07/28 11:18:13;;;;;;;1.73;0.43;;;20.80;49.60;;;;;;5020950;28;20025;-70
2022/07/28 11:20:56;;;;;;;1.67;0.75;;;21.50;49.90;;;;;;5032017;28;20036;-70
2022/07/28 11:23:45;;;;;;;2.30;0.50;;;22.10;46.80;;;;;;5032605;28;20025;-70
2022/07/28 11:26:20;;;;;;;2.53;0.40;;;22.30;45.70;;;;;;5033407;28;20026;-70
2022/07/28 11:29:12;;;;;;;1.50;0.40;;;22.60;45.40;;;;;;5032427;28;20026;-71
2022/07/28 11:31:44;;;;;;;1.45;0.50;;;23.50;44.40;;;;;;5029258;28;20120;-71
2022/07/28 11:34:11;;;;;;;2.33;0.68;;;22.30;43.90;;;;;;5028925;28;20442;-71
2022/07/28 11:36:56;;;;;;;3.20;0.50;;;22.00;44.60;;;;;;5031440;28;20354;-71
2022/07/28 11:39:26;;;;;;;1.67;0.47;;;22.30;45.50;;;;;;5032559;28;20037;-70
2022/07/28 11:41:52;;;;;;;2.17;0.23;;;23.00;45.90;;;;;;5027096;28;20025;-70
2022/07/28 11:44:31;;;;;;;1.98;0.63;;;23.60;43.70;;;;;;5032932;28;20040;-70
2022/07/28 11:47:20;;;;;;;1.75;0.60;;;23.30;43.90;;;;;;5028859;28;20029;-70
2022/07/28 11:50:13;;;;;;;2.58;0.70;;;23.80;41.20;;;;;;5029327;28;20040;-71
2022/07/28 11:52:50;;;;;;;1.70;0.50;;;23.60;42.00;;;;;;5031064;28;20038;-71
2022/07/28 11:55:17;;;;;;;3.72;0.70;;;24.30;43.20;;;;;;5031813;28;20076;-71
2022/07/28 11:57:43;;;;;;;2.50;0.32;;;24.80;40.40;;;;;;5032251;28;20723;-71
2022/07/28 12:00:09;;;;;;;1.63;0.47;;;23.20;41.10;;;;;;5032253;28;20419;-71
2022/07/28 12:02:35;;;;;;;1.00;0.40;;;23.60;41.70;;;;;;5026251;28;20014;-71
2022/07/28 12:05:08;;;;;;;2.15;0.50;;;23.80;42.40;;;;;;5028679;28;20037;-71
2022/07/28 12:07:39;;;;;;;2.40;0.55;;;24.60;40.60;;;;;;5029493;28;20030;-71
2022/07/28 12:10:29;;;;;;;3.50;0.70;;;24.70;43.20;;;;;;5030802;28;20099;-71
2022/07/28 12:13:00;;;;;;;2.45;0.50;;;24.70;40.90;;;;;;5029025;28;20026;-71
2022/07/28 12:15:26;;;;;;;1.63;0.43;;;25.30;40.70;;;;;;5032620;28;20029;-71
2022/07/28 12:17:52;;;;;;;3.17;0.68;;;26.20;37.10;;;;;;5030481;28;20026;-71
2022/07/28 12:20:18;;;;;;;1.67;0.50;;;26.60;36.40;;;;;;5027758;28;20441;-71
2022/07/28 12:23:00;;;;;;;1.85;0.52;;;26.50;36.50;;;;;;5030097;28;20361;-71
2022/07/28 12:25:27;;;;;;;2.28;0.57;;;25.50;36.50;;;;;;5032258;28;20037;-71
2022/07/28 12:27:53;;;;;;;2.60;0.60;;;25.90;37.40;;;;;;5026661;28;20029;-71
2022/07/28 12:30:26;;;;;;;2.03;0.40;;;26.10;37.60;;;;;;5029398;28;20038;-71
2022/07/28 12:32:53;;;;;;;1.90;0.43;;;26.70;37.30;;;;;;5030090;28;20164;-71
2022/07/28 12:35:19;;;;;;;2.85;0.80;;;25.40;38.30;;;;;;5031104;28;20083;-71
2022/07/28 12:37:47;;;;;;;1.98;0.65;;;25.60;37.90;;;;;;5028093;28;20401;-71
2022/07/28 12:40:16;;;;;;;2.42;0.32;;;25.20;41.00;;;;;;5026785;28;20045;-71
2022/07/28 12:42:42;;;;;;;3.42;0.55;;;25.00;40.70;;;;;;5028503;28;20047;-71
2022/07/28 12:45:09;;;;;;;2.30;0.60;;;25.10;40.40;;;;;;5030953;28;20148;-71
2022/07/28 12:47:34;;;;;;;4.22;0.95;;;24.20;40.50;;;;;;5027767;28;20060;-71
2022/07/28 12:50:12;;;;;;;1.23;0.38;;;23.90;42.60;;;;;;5026520;28;20484;-70
2022/07/28 12:52:39;;;;;;;2.40;0.40;;;23.70;42.60;;;;;;5030367;28;20025;-70
2022/07/28 12:55:20;;;;;;;3.33;0.50;;;23.30;42.00;;;;;;5028400;28;20037;-70
2022/07/28 12:57:46;;;;;;;1.27;0.50;;;23.50;42.80;;;;;;5029512;28;20092;-70